Accueil
METAR-TAF:

METAR-TAF

Aéroports :

Aéroport de Figari Sud Corse

Figari, France

latitude: 41-30N, longitude: 009-06E, altitude: 26 m

Observation

Le bulletin a été fait il y a 23 minutes, à 15:00 UTC
Vent 11 kt de ouest/sud-ouest, variant entre sud-ouest et ouest
Température 19°C
Humidité 60%
Pression 1019 hPa
Visibilité 10 km ou plus
pas de nuages en-dessous de 1500 mètres et pas de cumulonimbus.

METAR: LFKF 281500Z AUTO 24011KT 220V280 CAVOK 19/11 Q1019 NOSIG

Heure: 16:23 (15:23 UTC)

Prévision

Le bulletin a été fait il y a 1 heure et 23 minutes, à 14:00 UTC
Prévision valable du 28 à 15 UTC au 29 à 15 UTC
Vent 14 kt de ouest/sud-ouest
Visibilité 10 km ou plus
Quelques nuages à une hauteur de 3000 ft
Temporairement
du 29 à 01 UTC au 29 à 15 UTC
Vent 15 kt de ouest avec des rafales jusqu'à 30 kt

TAF: LFKF 281400Z 2815/2915 25014KT 9999 FEW030 TEMPO 2901/2915 27015G30KT

Observations et prévisions météorologiques de plus de 4000 aéroports (messages METAR et TAF).

Les stations disponibles sont représentées par des disques jaunes et rouges sur la carte.

Passer la souris dessus pour voir le nom de la station.

Cliquer dessus pour voir les observations et prévisions météorologiques.

Pour changer de carte: cliquez sur les boutons verts avec une croix noire pour zoomer, sur le bouton vert avec un tiret pour effectuer un zoom arrière, ou sur les flèches vertes pour les cartes adjacentes.


METAR-TAF: